sensor_id;sensor_type;location;lat;lon;timestamp;temperature;humidity
3275;DHT22;1649;53.672;10.064;2022-12-07T00:00:55;3.20;99.90
3275;DHT22;1649;53.672;10.064;2022-12-07T00:03:28;3.30;99.90
3275;DHT22;1649;53.672;10.064;2022-12-07T00:05:57;3.30;99.90
3275;DHT22;1649;53.672;10.064;2022-12-07T00:08:23;3.30;99.90
3275;DHT22;1649;53.672;10.064;2022-12-07T00:10:48;3.40;99.90
3275;DHT22;1649;53.672;10.064;2022-12-07T00:13:14;3.40;99.90
3275;DHT22;1649;53.672;10.064;2022-12-07T00:15:39;3.40;99.90
3275;DHT22;1649;53.672;10.064;2022-12-07T00:18:05;3.40;99.90
3275;DHT22;1649;53.672;10.064;2022-12-07T00:20:30;3.40;99.90
3275;DHT22;1649;53.672;10.064;2022-12-07T00:22:56;3.40;99.90
3275;DHT22;1649;53.672;10.064;2022-12-07T00:25:21;3.50;99.90
3275;DHT22;1649;53.672;10.064;2022-12-07T00:27:47;3.40;99.90
3275;DHT22;1649;53.672;10.064;2022-12-07T00:30:13;3.40;99.90
3275;DHT22;1649;53.672;10.064;2022-12-07T00:32:38;3.40;99.90
3275;DHT22;1649;53.672;10.064;2022-12-07T00:35:04;3.50;99.90
3275;DHT22;1649;53.672;10.064;2022-12-07T00:37:30;3.50;99.90
3275;DHT22;1649;53.672;10.064;2022-12-07T00:39:55;3.50;99.90
3275;DHT22;1649;53.672;10.064;2022-12-07T00:42:20;3.50;99.90
3275;DHT22;1649;53.672;10.064;2022-12-07T00:44:46;3.50;99.90
3275;DHT22;1649;53.672;10.064;2022-12-07T00:47:11;3.50;99.90
3275;DHT22;1649;53.672;10.064;2022-12-07T00:49:37;3.50;99.90
3275;DHT22;1649;53.672;10.064;2022-12-07T00:52:02;3.50;99.90
3275;DHT22;1649;53.672;10.064;2022-12-07T00:54:28;3.50;99.90
3275;DHT22;1649;53.672;10.064;2022-12-07T00:56:53;3.50;99.90
3275;DHT22;1649;53.672;10.064;2022-12-07T00:59:19;3.50;99.90
3275;DHT22;1649;53.672;10.064;2022-12-07T01:01:44;3.50;99.90
3275;DHT22;1649;53.672;10.064;2022-12-07T01:04:10;3.50;99.90
3275;DHT22;1649;53.672;10.064;2022-12-07T01:06:35;3.50;99.90
3275;DHT22;1649;53.672;10.064;2022-12-07T01:09:01;3.50;99.90
3275;DHT22;1649;53.672;10.064;2022-12-07T01:11:28;3.50;99.90
3275;DHT22;1649;53.672;10.064;2022-12-07T01:13:56;3.50;99.90
3275;DHT22;1649;53.672;10.064;2022-12-07T01:16:24;3.50;99.90
3275;DHT22;1649;53.672;10.064;2022-12-07T01:18:55;3.50;99.90
3275;DHT22;1649;53.672;10.064;2022-12-07T01:21:27;3.40;99.90
3275;DHT22;1649;53.672;10.064;2022-12-07T01:23:53;3.40;99.90
3275;DHT22;1649;53.672;10.064;2022-12-07T01:26:21;3.40;99.90
3275;DHT22;1649;53.672;10.064;2022-12-07T01:28:47;3.40;99.90
3275;DHT22;1649;53.672;10.064;2022-12-07T01:31:15;3.40;99.90
3275;DHT22;1649;53.672;10.064;2022-12-07T01:33:43;3.30;99.90
3275;DHT22;1649;53.672;10.064;2022-12-07T01:36:17;3.40;99.90
3275;DHT22;1649;53.672;10.064;2022-12-07T01:38:46;3.40;99.90
3275;DHT22;1649;53.672;10.064;2022-12-07T01:41:13;3.40;99.90
3275;DHT22;1649;53.672;10.064;2022-12-07T01:44:07;3.30;99.90
3275;DHT22;1649;53.672;10.064;2022-12-07T01:46:33;3.30;99.90
3275;DHT22;1649;53.672;10.064;2022-12-07T01:48:59;3.20;99.90
3275;DHT22;1649;53.672;10.064;2022-12-07T01:51:26;3.20;99.90
3275;DHT22;1649;53.672;10.064;2022-12-07T01:53:52;3.30;99.90
3275;DHT22;1649;53.672;10.064;2022-12-07T01:56:20;3.10;99.90
3275;DHT22;1649;53.672;10.064;2022-12-07T01:58:48;3.00;99.90
3275;DHT22;1649;53.672;10.064;2022-12-07T02:01:14;3.00;99.90
3275;DHT22;1649;53.672;10.064;2022-12-07T02:03:41;3.00;99.90
3275;DHT22;1649;53.672;10.064;2022-12-07T03:17:10;2.50;99.90
3275;DHT22;1649;53.672;10.064;2022-12-07T03:19:39;2.50;99.90
3275;DHT22;1649;53.672;10.064;2022-12-07T03:22:10;2.50;99.90
3275;DHT22;1649;53.672;10.064;2022-12-07T03:24:50;2.50;99.90
3275;DHT22;1649;53.672;10.064;2022-12-07T03:27:27;2.40;99.90
3275;DHT22;1649;53.672;10.064;2022-12-07T03:32:37;2.40;99.90
3275;DHT22;1649;53.672;10.064;2022-12-07T03:35:12;2.40;99.90
3275;DHT22;1649;53.672;10.064;2022-12-07T03:40:34;2.40;99.90
3275;DHT22;1649;53.672;10.064;2022-12-07T03:43:01;2.30;99.90
3275;DHT22;1649;53.672;10.064;2022-12-07T03:45:43;2.30;99.90
3275;DHT22;1649;53.672;10.064;2022-12-07T03:48:18;2.30;99.90
3275;DHT22;1649;53.672;10.064;2022-12-07T03:50:52;2.30;99.90
3275;DHT22;1649;53.672;10.064;2022-12-07T03:53:40;2.30;99.90
3275;DHT22;1649;53.672;10.064;2022-12-07T03:56:09;2.30;99.90
3275;DHT22;1649;53.672;10.064;2022-12-07T03:58:36;2.30;99.90
3275;DHT22;1649;53.672;10.064;2022-12-07T04:01:02;2.30;99.90
3275;DHT22;1649;53.672;10.064;2022-12-07T04:03:27;2.20;99.90
3275;DHT22;1649;53.672;10.064;2022-12-07T04:05:53;2.20;99.90
3275;DHT22;1649;53.672;10.064;2022-12-07T04:08:19;2.20;99.90
3275;DHT22;1649;53.672;10.064;2022-12-07T04:10:45;2.10;99.90
3275;DHT22;1649;53.672;10.064;2022-12-07T04:13:10;2.10;99.90
3275;DHT22;1649;53.672;10.064;2022-12-07T04:15:36;2.10;99.90
3275;DHT22;1649;53.672;10.064;2022-12-07T04:18:01;2.10;99.90
3275;DHT22;1649;53.672;10.064;2022-12-07T04:20:27;2.10;99.90
3275;DHT22;1649;53.672;10.064;2022-12-07T04:22:52;2.10;99.90
3275;DHT22;1649;53.672;10.064;2022-12-07T04:25:18;2.10;99.90
3275;DHT22;1649;53.672;10.064;2022-12-07T04:27:43;2.10;99.90
3275;DHT22;1649;53.672;10.064;2022-12-07T04:30:09;2.00;99.90
3275;DHT22;1649;53.672;10.064;2022-12-07T04:32:35;2.00;99.90
3275;DHT22;1649;53.672;10.064;2022-12-07T04:35:00;2.00;99.90
3275;DHT22;1649;53.672;10.064;2022-12-07T04:37:26;2.00;99.90
3275;DHT22;1649;53.672;10.064;2022-12-07T04:39:51;2.00;99.90
3275;DHT22;1649;53.672;10.064;2022-12-07T04:42:17;2.00;99.90
3275;DHT22;1649;53.672;10.064;2022-12-07T04:44:42;2.00;99.90
3275;DHT22;1649;53.672;10.064;2022-12-07T04:47:08;2.00;99.90
3275;DHT22;1649;53.672;10.064;2022-12-07T04:49:33;2.00;99.90
3275;DHT22;1649;53.672;10.064;2022-12-07T04:51:59;1.90;99.90
3275;DHT22;1649;53.672;10.064;2022-12-07T04:54:24;2.00;99.90
3275;DHT22;1649;53.672;10.064;2022-12-07T04:56:50;1.90;99.90
3275;DHT22;1649;53.672;10.064;2022-12-07T04:59:16;2.00;99.90
3275;DHT22;1649;53.672;10.064;2022-12-07T05:01:42;1.90;99.90
3275;DHT22;1649;53.672;10.064;2022-12-07T05:04:08;1.90;99.90
3275;DHT22;1649;53.672;10.064;2022-12-07T05:06:34;1.90;99.90
3275;DHT22;1649;53.672;10.064;2022-12-07T05:08:59;1.90;99.90
3275;DHT22;1649;53.672;10.064;2022-12-07T05:11:25;1.80;99.90
3275;DHT22;1649;53.672;10.064;2022-12-07T05:14:06;1.90;99.90
3275;DHT22;1649;53.672;10.064;2022-12-07T05:16:31;1.80;99.90
3275;DHT22;1649;53.672;10.064;2022-12-07T05:18:57;1.80;99.90
3275;DHT22;1649;53.672;10.064;2022-12-07T05:21:23;1.70;99.90
3275;DHT22;1649;53.672;10.064;2022-12-07T05:23:48;1.80;99.90
3275;DHT22;1649;53.672;10.064;2022-12-07T05:26:14;1.80;99.90
3275;DHT22;1649;53.672;10.064;2022-12-07T05:28:40;1.80;99.90
3275;DHT22;1649;53.672;10.064;2022-12-07T05:31:05;1.80;99.90
3275;DHT22;1649;53.672;10.064;2022-12-07T05:33:31;1.80;99.90
3275;DHT22;1649;53.672;10.064;2022-12-07T05:35:56;1.70;99.90
3275;DHT22;1649;53.672;10.064;2022-12-07T05:38:22;1.80;99.90
3275;DHT22;1649;53.672;10.064;2022-12-07T05:40:47;1.70;99.90
3275;DHT22;1649;53.672;10.064;2022-12-07T05:43:13;1.80;99.90
3275;DHT22;1649;53.672;10.064;2022-12-07T05:45:38;1.80;99.90
3275;DHT22;1649;53.672;10.064;2022-12-07T05:48:04;1.80;99.90
3275;DHT22;1649;53.672;10.064;2022-12-07T05:50:30;1.70;99.90
3275;DHT22;1649;53.672;10.064;2022-12-07T05:52:55;1.70;99.90
3275;DHT22;1649;53.672;10.064;2022-12-07T05:55:21;1.70;99.90
3275;DHT22;1649;53.672;10.064;2022-12-07T05:57:46;1.70;99.90
3275;DHT22;1649;53.672;10.064;2022-12-07T06:00:31;1.60;99.90
3275;DHT22;1649;53.672;10.064;2022-12-07T06:02:57;1.50;99.90
3275;DHT22;1649;53.672;10.064;2022-12-07T06:05:22;1.50;99.90
3275;DHT22;1649;53.672;10.064;2022-12-07T06:07:48;1.50;99.90
3275;DHT22;1649;53.672;10.064;2022-12-07T06:10:13;1.50;99.90
3275;DHT22;1649;53.672;10.064;2022-12-07T06:12:39;1.40;99.90
3275;DHT22;1649;53.672;10.064;2022-12-07T06:15:08;1.40;99.90
3275;DHT22;1649;53.672;10.064;2022-12-07T06:17:34;1.40;99.90
3275;DHT22;1649;53.672;10.064;2022-12-07T06:19:59;1.40;99.90
3275;DHT22;1649;53.672;10.064;2022-12-07T06:22:25;1.40;99.90
3275;DHT22;1649;53.672;10.064;2022-12-07T06:24:50;1.30;99.90
3275;DHT22;1649;53.672;10.064;2022-12-07T06:27:16;1.30;99.90
3275;DHT22;1649;53.672;10.064;2022-12-07T06:29:41;1.30;99.90
3275;DHT22;1649;53.672;10.064;2022-12-07T06:32:07;1.30;99.90
3275;DHT22;1649;53.672;10.064;2022-12-07T06:34:32;1.30;99.90
3275;DHT22;1649;53.672;10.064;2022-12-07T06:36:58;1.30;99.90
3275;DHT22;1649;53.672;10.064;2022-12-07T06:39:25;1.40;99.90
3275;DHT22;1649;53.672;10.064;2022-12-07T06:41:52;1.30;99.90
3275;DHT22;1649;53.672;10.064;2022-12-07T06:44:18;1.30;99.90
3275;DHT22;1649;53.672;10.064;2022-12-07T06:46:44;1.40;99.90
3275;DHT22;1649;53.672;10.064;2022-12-07T06:49:10;1.40;99.90
3275;DHT22;1649;53.672;10.064;2022-12-07T06:51:35;1.50;99.90
3275;DHT22;1649;53.672;10.064;2022-12-07T06:54:02;1.40;99.90
3275;DHT22;1649;53.672;10.064;2022-12-07T06:56:29;1.50;99.90
3275;DHT22;1649;53.672;10.064;2022-12-07T06:58:54;1.50;99.90
3275;DHT22;1649;53.672;10.064;2022-12-07T07:01:20;1.50;99.90
3275;DHT22;1649;53.672;10.064;2022-12-07T07:03:46;1.50;99.90
3275;DHT22;1649;53.672;10.064;2022-12-07T07:06:13;1.40;99.90
3275;DHT22;1649;53.672;10.064;2022-12-07T07:08:39;1.40;99.90
3275;DHT22;1649;53.672;10.064;2022-12-07T07:11:05;1.50;99.90
3275;DHT22;1649;53.672;10.064;2022-12-07T07:13:32;1.50;99.90
3275;DHT22;1649;53.672;10.064;2022-12-07T07:15:57;1.50;99.90
3275;DHT22;1649;53.672;10.064;2022-12-07T07:18:24;1.60;99.90
3275;DHT22;1649;53.672;10.064;2022-12-07T07:20:51;1.60;99.90
3275;DHT22;1649;53.672;10.064;2022-12-07T07:23:16;1.60;99.90
3275;DHT22;1649;53.672;10.064;2022-12-07T07:25:42;1.60;99.90
3275;DHT22;1649;53.672;10.064;2022-12-07T07:28:07;1.60;99.90
3275;DHT22;1649;53.672;10.064;2022-12-07T07:30:33;1.60;99.90
3275;DHT22;1649;53.672;10.064;2022-12-07T07:33:00;1.60;99.90
3275;DHT22;1649;53.672;10.064;2022-12-07T07:35:27;1.60;99.90
3275;DHT22;1649;53.672;10.064;2022-12-07T07:37:53;1.70;99.90
3275;DHT22;1649;53.672;10.064;2022-12-07T07:40:19;1.70;99.90
3275;DHT22;1649;53.672;10.064;2022-12-07T07:42:47;1.80;99.90
3275;DHT22;1649;53.672;10.064;2022-12-07T07:45:13;1.80;99.90
3275;DHT22;1649;53.672;10.064;2022-12-07T07:47:39;1.70;99.90
3275;DHT22;1649;53.672;10.064;2022-12-07T07:50:05;1.80;99.90
3275;DHT22;1649;53.672;10.064;2022-12-07T07:52:31;1.90;99.90
3275;DHT22;1649;53.672;10.064;2022-12-07T07:54:56;1.90;99.90
3275;DHT22;1649;53.672;10.064;2022-12-07T07:57:22;1.80;99.90
3275;DHT22;1649;53.672;10.064;2022-12-07T07:59:47;1.90;99.90
3275;DHT22;1649;53.672;10.064;2022-12-07T08:02:17;1.90;99.90
3275;DHT22;1649;53.672;10.064;2022-12-07T08:04:44;1.90;99.90
3275;DHT22;1649;53.672;10.064;2022-12-07T08:07:10;2.00;99.90
3275;DHT22;1649;53.672;10.064;2022-12-07T08:09:36;2.00;99.90
3275;DHT22;1649;53.672;10.064;2022-12-07T08:32:44;2.30;99.90
3275;DHT22;1649;53.672;10.064;2022-12-07T08:35:09;2.30;99.90
3275;DHT22;1649;53.672;10.064;2022-12-07T08:37:35;2.30;99.90
3275;DHT22;1649;53.672;10.064;2022-12-07T08:40:00;2.30;99.90
3275;DHT22;1649;53.672;10.064;2022-12-07T08:42:26;2.40;99.90
3275;DHT22;1649;53.672;10.064;2022-12-07T08:44:56;2.40;99.90
3275;DHT22;1649;53.672;10.064;2022-12-07T08:47:23;2.40;99.90
3275;DHT22;1649;53.672;10.064;2022-12-07T08:49:51;2.40;99.90
3275;DHT22;1649;53.672;10.064;2022-12-07T08:52:17;2.50;99.90
3275;DHT22;1649;53.672;10.064;2022-12-07T08:54:44;2.50;99.90
3275;DHT22;1649;53.672;10.064;2022-12-07T08:57:10;2.50;99.90
3275;DHT22;1649;53.672;10.064;2022-12-07T08:59:37;2.60;99.90
3275;DHT22;1649;53.672;10.064;2022-12-07T09:02:03;2.60;99.90
3275;DHT22;1649;53.672;10.064;2022-12-07T09:04:29;2.70;99.90
3275;DHT22;1649;53.672;10.064;2022-12-07T09:06:55;2.70;99.90
3275;DHT22;1649;53.672;10.064;2022-12-07T09:09:20;2.60;99.90
3275;DHT22;1649;53.672;10.064;2022-12-07T09:11:46;2.70;99.90
3275;DHT22;1649;53.672;10.064;2022-12-07T09:14:12;2.80;99.90
3275;DHT22;1649;53.672;10.064;2022-12-07T09:16:38;2.80;99.90
3275;DHT22;1649;53.672;10.064;2022-12-07T09:19:03;2.90;99.90
3275;DHT22;1649;53.672;10.064;2022-12-07T09:21:29;2.80;99.90
3275;DHT22;1649;53.672;10.064;2022-12-07T09:23:55;2.90;99.90
3275;DHT22;1649;53.672;10.064;2022-12-07T09:26:20;3.00;99.90
3275;DHT22;1649;53.672;10.064;2022-12-07T09:28:46;3.00;99.90
3275;DHT22;1649;53.672;10.064;2022-12-07T09:31:11;3.10;99.90
3275;DHT22;1649;53.672;10.064;2022-12-07T09:33:37;3.10;99.90
3275;DHT22;1649;53.672;10.064;2022-12-07T09:36:03;3.10;99.90
3275;DHT22;1649;53.672;10.064;2022-12-07T09:38:28;3.10;99.90
3275;DHT22;1649;53.672;10.064;2022-12-07T09:40:55;3.20;99.90
3275;DHT22;1649;53.672;10.064;2022-12-07T09:43:23;3.20;99.90
3275;DHT22;1649;53.672;10.064;2022-12-07T09:45:51;3.20;99.90
3275;DHT22;1649;53.672;10.064;2022-12-07T09:48:21;3.40;99.90
3275;DHT22;1649;53.672;10.064;2022-12-07T09:50:48;3.40;99.90
3275;DHT22;1649;53.672;10.064;2022-12-07T09:53:24;3.50;99.90
3275;DHT22;1649;53.672;10.064;2022-12-07T09:55:50;3.50;99.90
3275;DHT22;1649;53.672;10.064;2022-12-07T09:58:23;3.60;99.90
3275;DHT22;1649;53.672;10.064;2022-12-07T10:00:53;3.70;99.90
3275;DHT22;1649;53.672;10.064;2022-12-07T10:03:20;3.80;99.90
3275;DHT22;1649;53.672;10.064;2022-12-07T10:05:49;3.80;99.90
3275;DHT22;1649;53.672;10.064;2022-12-07T10:08:15;3.90;99.90
3275;DHT22;1649;53.672;10.064;2022-12-07T10:10:45;3.90;99.90
3275;DHT22;1649;53.672;10.064;2022-12-07T10:13:18;4.00;99.90
3275;DHT22;1649;53.672;10.064;2022-12-07T10:18:37;4.10;99.90
3275;DHT22;1649;53.672;10.064;2022-12-07T10:21:23;4.10;99.90
3275;DHT22;1649;53.672;10.064;2022-12-07T10:26:39;4.20;99.90
3275;DHT22;1649;53.672;10.064;2022-12-07T10:29:32;4.20;99.90
3275;DHT22;1649;53.672;10.064;2022-12-07T10:32:02;4.20;99.90
3275;DHT22;1649;53.672;10.064;2022-12-07T10:34:37;4.20;99.90
3275;DHT22;1649;53.672;10.064;2022-12-07T10:39:51;4.30;99.90
3275;DHT22;1649;53.672;10.064;2022-12-07T10:42:20;4.30;99.90
3275;DHT22;1649;53.672;10.064;2022-12-07T10:44:47;4.30;99.90
3275;DHT22;1649;53.672;10.064;2022-12-07T10:47:31;4.30;99.90
3275;DHT22;1649;53.672;10.064;2022-12-07T10:52:58;4.30;99.90
3275;DHT22;1649;53.672;10.064;2022-12-07T11:04:10;4.40;99.90
3275;DHT22;1649;53.672;10.064;2022-12-07T11:06:51;4.40;99.90
3275;DHT22;1649;53.672;10.064;2022-12-07T11:09:44;4.40;99.90
3275;DHT22;1649;53.672;10.064;2022-12-07T11:12:20;4.50;99.90
3275;DHT22;1649;53.672;10.064;2022-12-07T11:15:09;4.60;99.90
3275;DHT22;1649;53.672;10.064;2022-12-07T11:17:56;4.80;99.90
3275;DHT22;1649;53.672;10.064;2022-12-07T11:20:37;4.90;99.90
3275;DHT22;1649;53.672;10.064;2022-12-07T11:23:40;4.90;99.90
3275;DHT22;1649;53.672;10.064;2022-12-07T11:35:05;4.90;99.90
3275;DHT22;1649;53.672;10.064;2022-12-07T11:37:35;4.80;99.90
3275;DHT22;1649;53.672;10.064;2022-12-07T11:40:33;4.80;99.90
3275;DHT22;1649;53.672;10.064;2022-12-07T11:43:13;4.80;99.90
3275;DHT22;1649;53.672;10.064;2022-12-07T11:45:55;4.80;99.90
3275;DHT22;1649;53.672;10.064;2022-12-07T11:48:32;4.80;99.90
3275;DHT22;1649;53.672;10.064;2022-12-07T11:51:01;4.80;99.90
3275;DHT22;1649;53.672;10.064;2022-12-07T11:53:34;4.80;99.90
3275;DHT22;1649;53.672;10.064;2022-12-07T11:56:14;4.80;99.90
3275;DHT22;1649;53.672;10.064;2022-12-07T12:02:12;4.80;99.90
3275;DHT22;1649;53.672;10.064;2022-12-07T12:04:54;5.00;99.90
3275;DHT22;1649;53.672;10.064;2022-12-07T12:07:24;5.00;99.90
3275;DHT22;1649;53.672;10.064;2022-12-07T12:09:58;5.10;99.90
3275;DHT22;1649;53.672;10.064;2022-12-07T12:18:10;5.00;99.90
3275;DHT22;1649;53.672;10.064;2022-12-07T12:20:43;5.00;99.90
3275;DHT22;1649;53.672;10.064;2022-12-07T12:23:20;5.00;99.90
3275;DHT22;1649;53.672;10.064;2022-12-07T12:25:48;4.90;99.90
3275;DHT22;1649;53.672;10.064;2022-12-07T12:28:28;4.90;99.90
3275;DHT22;1649;53.672;10.064;2022-12-07T12:33:57;4.90;99.90
3275;DHT22;1649;53.672;10.064;2022-12-07T12:39:14;4.90;99.90
3275;DHT22;1649;53.672;10.064;2022-12-07T12:56:53;4.80;99.90
3275;DHT22;1649;53.672;10.064;2022-12-07T13:02:22;4.60;99.90
3275;DHT22;1649;53.672;10.064;2022-12-07T13:07:49;4.50;99.90
3275;DHT22;1649;53.672;10.064;2022-12-07T13:15:50;4.50;99.90
3275;DHT22;1649;53.672;10.064;2022-12-07T13:23:28;4.40;99.90
3275;DHT22;1649;53.672;10.064;2022-12-07T13:26:03;4.40;99.90
3275;DHT22;1649;53.672;10.064;2022-12-07T13:28:36;4.40;99.90
3275;DHT22;1649;53.672;10.064;2022-12-07T13:33:49;4.50;99.90
3275;DHT22;1649;53.672;10.064;2022-12-07T13:36:25;4.50;99.90
3275;DHT22;1649;53.672;10.064;2022-12-07T13:39:00;4.60;99.90
3275;DHT22;1649;53.672;10.064;2022-12-07T13:41:29;4.60;99.90
3275;DHT22;1649;53.672;10.064;2022-12-07T13:44:09;4.70;99.90
3275;DHT22;1649;53.672;10.064;2022-12-07T13:46:59;4.70;99.90
3275;DHT22;1649;53.672;10.064;2022-12-07T13:49:26;4.60;99.90
3275;DHT22;1649;53.672;10.064;2022-12-07T13:51:54;4.60;99.90
3275;DHT22;1649;53.672;10.064;2022-12-07T13:54:21;4.50;99.90
3275;DHT22;1649;53.672;10.064;2022-12-07T13:56:51;4.40;99.90
3275;DHT22;1649;53.672;10.064;2022-12-07T13:59:23;4.20;99.90
3275;DHT22;1649;53.672;10.064;2022-12-07T14:01:51;4.10;99.90
3275;DHT22;1649;53.672;10.064;2022-12-07T14:04:31;4.00;99.90
3275;DHT22;1649;53.672;10.064;2022-12-07T14:06:57;3.90;99.90
3275;DHT22;1649;53.672;10.064;2022-12-07T14:09:25;3.90;99.90
3275;DHT22;1649;53.672;10.064;2022-12-07T14:11:52;3.80;99.90
3275;DHT22;1649;53.672;10.064;2022-12-07T14:14:27;3.80;99.90
3275;DHT22;1649;53.672;10.064;2022-12-07T14:17:08;3.70;99.90
3275;DHT22;1649;53.672;10.064;2022-12-07T14:22:30;3.60;99.90
3275;DHT22;1649;53.672;10.064;2022-12-07T14:25:24;3.50;99.90
3275;DHT22;1649;53.672;10.064;2022-12-07T14:28:01;3.40;99.90
3275;DHT22;1649;53.672;10.064;2022-12-07T14:30:30;3.40;99.90
3275;DHT22;1649;53.672;10.064;2022-12-07T14:33:00;3.30;99.90
3275;DHT22;1649;53.672;10.064;2022-12-07T14:35:27;3.30;99.90
3275;DHT22;1649;53.672;10.064;2022-12-07T14:37:53;3.20;99.90
3275;DHT22;1649;53.672;10.064;2022-12-07T14:40:22;3.10;99.90
3275;DHT22;1649;53.672;10.064;2022-12-07T14:42:51;3.10;99.90
3275;DHT22;1649;53.672;10.064;2022-12-07T14:45:21;3.10;99.90
3275;DHT22;1649;53.672;10.064;2022-12-07T14:47:47;3.10;99.90
3275;DHT22;1649;53.672;10.064;2022-12-07T14:50:14;3.10;99.90
3275;DHT22;1649;53.672;10.064;2022-12-07T14:52:43;3.10;99.90
3275;DHT22;1649;53.672;10.064;2022-12-07T14:55:29;3.00;99.90
3275;DHT22;1649;53.672;10.064;2022-12-07T14:57:56;2.90;99.90
3275;DHT22;1649;53.672;10.064;2022-12-07T15:00:24;2.80;99.90
3275;DHT22;1649;53.672;10.064;2022-12-07T15:02:50;2.80;99.90
3275;DHT22;1649;53.672;10.064;2022-12-07T15:05:17;2.70;99.90
3275;DHT22;1649;53.672;10.064;2022-12-07T15:07:43;2.70;99.90
3275;DHT22;1649;53.672;10.064;2022-12-07T15:10:28;2.60;99.90
3275;DHT22;1649;53.672;10.064;2022-12-07T15:12:56;2.60;99.90
3275;DHT22;1649;53.672;10.064;2022-12-07T15:15:41;2.50;99.90
3275;DHT22;1649;53.672;10.064;2022-12-07T15:18:07;2.50;99.90
3275;DHT22;1649;53.672;10.064;2022-12-07T15:20:33;2.50;99.90
3275;DHT22;1649;53.672;10.064;2022-12-07T15:22:58;2.40;99.90
3275;DHT22;1649;53.672;10.064;2022-12-07T15:25:24;2.40;99.90
3275;DHT22;1649;53.672;10.064;2022-12-07T15:27:49;2.30;99.90
3275;DHT22;1649;53.672;10.064;2022-12-07T15:30:15;2.30;99.90
3275;DHT22;1649;53.672;10.064;2022-12-07T15:32:41;2.30;99.90
3275;DHT22;1649;53.672;10.064;2022-12-07T15:35:06;2.20;99.90
3275;DHT22;1649;53.672;10.064;2022-12-07T15:37:32;2.20;99.90
3275;DHT22;1649;53.672;10.064;2022-12-07T15:39:58;2.10;99.90
3275;DHT22;1649;53.672;10.064;2022-12-07T15:42:23;2.00;99.90
3275;DHT22;1649;53.672;10.064;2022-12-07T15:44:49;2.00;99.90
3275;DHT22;1649;53.672;10.064;2022-12-07T15:47:34;1.90;99.90
3275;DHT22;1649;53.672;10.064;2022-12-07T15:50:05;1.90;99.90
3275;DHT22;1649;53.672;10.064;2022-12-07T15:52:31;1.90;99.90
3275;DHT22;1649;53.672;10.064;2022-12-07T15:54:57;1.90;99.90
3275;DHT22;1649;53.672;10.064;2022-12-07T15:57:25;1.80;99.90
3275;DHT22;1649;53.672;10.064;2022-12-07T15:59:50;1.70;99.90
3275;DHT22;1649;53.672;10.064;2022-12-07T16:02:16;1.70;99.90
3275;DHT22;1649;53.672;10.064;2022-12-07T16:04:41;1.60;99.90
3275;DHT22;1649;53.672;10.064;2022-12-07T16:07:07;1.50;99.90
3275;DHT22;1649;53.672;10.064;2022-12-07T16:09:33;1.50;99.90
3275;DHT22;1649;53.672;10.064;2022-12-07T16:11:59;1.50;99.90
3275;DHT22;1649;53.672;10.064;2022-12-07T16:14:24;1.50;99.90
3275;DHT22;1649;53.672;10.064;2022-12-07T16:16:50;1.50;99.90
3275;DHT22;1649;53.672;10.064;2022-12-07T16:19:15;1.50;99.90
3275;DHT22;1649;53.672;10.064;2022-12-07T16:21:41;1.50;99.90
3275;DHT22;1649;53.672;10.064;2022-12-07T16:24:07;1.50;99.90
3275;DHT22;1649;53.672;10.064;2022-12-07T16:26:33;1.50;99.90
3275;DHT22;1649;53.672;10.064;2022-12-07T16:28:59;1.50;99.90
3275;DHT22;1649;53.672;10.064;2022-12-07T16:31:27;1.50;99.90
3275;DHT22;1649;53.672;10.064;2022-12-07T16:33:54;1.40;99.90
3275;DHT22;1649;53.672;10.064;2022-12-07T16:36:20;1.40;99.90
3275;DHT22;1649;53.672;10.064;2022-12-07T16:38:48;1.20;99.90
3275;DHT22;1649;53.672;10.064;2022-12-07T16:41:13;1.20;99.90
3275;DHT22;1649;53.672;10.064;2022-12-07T16:43:39;1.20;99.90
3275;DHT22;1649;53.672;10.064;2022-12-07T16:46:05;1.20;99.90
3275;DHT22;1649;53.672;10.064;2022-12-07T16:48:31;1.20;99.90
3275;DHT22;1649;53.672;10.064;2022-12-07T16:50:57;1.20;99.90
3275;DHT22;1649;53.672;10.064;2022-12-07T16:53:23;1.20;99.90
3275;DHT22;1649;53.672;10.064;2022-12-07T16:55:49;1.20;99.90
3275;DHT22;1649;53.672;10.064;2022-12-07T16:58:16;1.10;99.90
3275;DHT22;1649;53.672;10.064;2022-12-07T17:00:42;1.10;99.90
3275;DHT22;1649;53.672;10.064;2022-12-07T17:03:09;1.20;99.90
3275;DHT22;1649;53.672;10.064;2022-12-07T17:05:42;1.20;99.90
3275;DHT22;1649;53.672;10.064;2022-12-07T17:08:09;1.20;99.90
3275;DHT22;1649;53.672;10.064;2022-12-07T17:10:37;1.20;99.90
3275;DHT22;1649;53.672;10.064;2022-12-07T17:13:04;1.20;99.90
3275;DHT22;1649;53.672;10.064;2022-12-07T17:16:16;1.20;99.90
3275;DHT22;1649;53.672;10.064;2022-12-07T17:18:41;1.20;99.90
3275;DHT22;1649;53.672;10.064;2022-12-07T17:21:08;1.20;99.90
3275;DHT22;1649;53.672;10.064;2022-12-07T17:23:36;1.20;99.90
3275;DHT22;1649;53.672;10.064;2022-12-07T17:26:14;1.20;99.90
3275;DHT22;1649;53.672;10.064;2022-12-07T17:28:40;1.20;99.90
3275;DHT22;1649;53.672;10.064;2022-12-07T17:31:07;1.10;99.90
3275;DHT22;1649;53.672;10.064;2022-12-07T17:33:33;1.10;99.90
3275;DHT22;1649;53.672;10.064;2022-12-07T17:35:59;1.10;99.90
3275;DHT22;1649;53.672;10.064;2022-12-07T17:38:25;1.10;99.90
3275;DHT22;1649;53.672;10.064;2022-12-07T17:40:50;1.00;99.90
3275;DHT22;1649;53.672;10.064;2022-12-07T17:43:16;1.10;99.90
3275;DHT22;1649;53.672;10.064;2022-12-07T17:45:41;1.10;99.90
3275;DHT22;1649;53.672;10.064;2022-12-07T17:48:07;1.00;99.90
3275;DHT22;1649;53.672;10.064;2022-12-07T17:50:32;1.00;99.90
3275;DHT22;1649;53.672;10.064;2022-12-07T17:53:17;1.00;99.90
3275;DHT22;1649;53.672;10.064;2022-12-07T17:55:43;1.00;99.90
3275;DHT22;1649;53.672;10.064;2022-12-07T17:58:08;1.10;99.90
3275;DHT22;1649;53.672;10.064;2022-12-07T18:00:34;1.20;99.90
3275;DHT22;1649;53.672;10.064;2022-12-07T18:03:05;1.10;99.90
3275;DHT22;1649;53.672;10.064;2022-12-07T18:05:34;1.10;99.90
3275;DHT22;1649;53.672;10.064;2022-12-07T18:07:59;1.10;99.90
3275;DHT22;1649;53.672;10.064;2022-12-07T18:10:25;1.10;99.90
3275;DHT22;1649;53.672;10.064;2022-12-07T18:12:50;1.20;99.90
3275;DHT22;1649;53.672;10.064;2022-12-07T18:15:36;1.20;99.90
3275;DHT22;1649;53.672;10.064;2022-12-07T18:18:02;1.20;99.90
3275;DHT22;1649;53.672;10.064;2022-12-07T18:20:27;1.20;99.90
3275;DHT22;1649;53.672;10.064;2022-12-07T18:22:52;1.10;99.90
3275;DHT22;1649;53.672;10.064;2022-12-07T18:25:18;1.10;99.90
3275;DHT22;1649;53.672;10.064;2022-12-07T18:27:43;1.10;99.90
3275;DHT22;1649;53.672;10.064;2022-12-07T18:30:09;1.00;99.90
3275;DHT22;1649;53.672;10.064;2022-12-07T18:32:35;1.00;99.90
3275;DHT22;1649;53.672;10.064;2022-12-07T18:35:00;1.00;99.90
3275;DHT22;1649;53.672;10.064;2022-12-07T18:37:26;1.00;99.90
3275;DHT22;1649;53.672;10.064;2022-12-07T18:39:52;1.10;99.90
3275;DHT22;1649;53.672;10.064;2022-12-07T18:42:19;1.10;99.90
3275;DHT22;1649;53.672;10.064;2022-12-07T18:44:45;1.10;99.90
3275;DHT22;1649;53.672;10.064;2022-12-07T18:47:10;1.10;99.90
3275;DHT22;1649;53.672;10.064;2022-12-07T18:49:36;1.00;99.90
3275;DHT22;1649;53.672;10.064;2022-12-07T18:52:01;1.00;99.90
3275;DHT22;1649;53.672;10.064;2022-12-07T18:54:27;1.00;99.90
3275;DHT22;1649;53.672;10.064;2022-12-07T18:56:52;1.00;99.90
3275;DHT22;1649;53.672;10.064;2022-12-07T18:59:19;1.00;99.90
3275;DHT22;1649;53.672;10.064;2022-12-07T19:02:03;1.10;99.90
3275;DHT22;1649;53.672;10.064;2022-12-07T19:04:29;1.10;99.90
3275;DHT22;1649;53.672;10.064;2022-12-07T19:06:54;1.10;99.90
3275;DHT22;1649;53.672;10.064;2022-12-07T19:09:20;1.00;99.90